createdAt,value
2022-12-14T17:28:44.910Z,9.66
2022-12-14T17:33:54.007Z,1.79
2022-12-14T17:38:59.475Z,-0.52
2022-12-14T17:44:05.352Z,-1.26
2022-12-14T17:49:13.245Z,-1.43
2022-12-14T17:54:24.619Z,-1.51
2022-12-14T17:59:28.307Z,-1.72
2022-12-14T18:04:33.715Z,-1.91
2022-12-14T18:09:39.135Z,-1.89
2022-12-14T18:14:45.226Z,-1.87
2022-12-14T18:19:51.319Z,-1.94
2022-12-14T18:24:56.721Z,-1.33
2022-12-14T18:30:02.202Z,-0.92
2022-12-14T18:35:09.804Z,-1.50
2022-12-14T18:40:17.917Z,-1.66
2022-12-14T18:45:26.405Z,-1.78
2022-12-14T18:50:32.075Z,-1.84
2022-12-14T18:55:37.546Z,-1.94
2022-12-14T19:00:43.033Z,-2.06
2022-12-14T19:05:48.607Z,-2.09
2022-12-14T19:10:54.036Z,-2.07
2022-12-14T19:15:59.581Z,-2.02
2022-12-14T19:21:06.448Z,-2.03
2022-12-14T19:26:12.306Z,-2.09
2022-12-14T19:31:18.746Z,-2.10
2022-12-14T19:36:24.991Z,-2.12
2022-12-14T19:41:31.632Z,-2.14
2022-12-14T19:46:37.221Z,-2.10
2022-12-14T19:51:42.720Z,-2.13
2022-12-14T19:56:49.199Z,-2.23
2022-12-14T20:01:54.963Z,-2.29
2022-12-14T20:07:00.903Z,-2.23
2022-12-14T20:12:08.560Z,-2.22
2022-12-14T20:17:15.220Z,-2.21
2022-12-14T20:22:20.795Z,-2.17
2022-12-14T20:27:26.693Z,-2.19
2022-12-14T20:32:32.264Z,-2.20
2022-12-14T20:37:38.147Z,-2.13
2022-12-14T20:42:44.048Z,-2.13
2022-12-14T20:47:51.370Z,-2.09
2022-12-14T20:52:56.845Z,-2.10
2022-12-14T20:58:02.698Z,-2.33
2022-12-14T21:03:08.367Z,-2.49
2022-12-14T21:08:15.731Z,-2.58
2022-12-14T21:13:21.117Z,-2.71
2022-12-14T21:18:26.790Z,-2.78
2022-12-14T21:23:32.837Z,-1.46
2022-12-14T21:28:38.348Z,-2.60
2022-12-14T21:33:49.744Z,-2.88
2022-12-14T21:38:54.317Z,-3.01
2022-12-14T21:44:00.753Z,-3.08
2022-12-14T21:49:06.975Z,-3.19
2022-12-14T21:54:15.548Z,-3.16
2022-12-14T21:59:38.844Z,-3.21
2022-12-14T22:04:47.095Z,-3.22
2022-12-14T22:09:52.696Z,-3.20
2022-12-14T22:14:58.265Z,-3.25
2022-12-14T22:20:04.084Z,-3.30
2022-12-14T22:25:10.175Z,-3.50
2022-12-14T22:30:15.641Z,-3.58
2022-12-14T22:35:21.245Z,-2.17
2022-12-14T22:40:26.971Z,-3.02
2022-12-14T22:45:32.362Z,-3.23
2022-12-14T22:50:37.760Z,-3.43
2022-12-14T22:55:45.108Z,-3.60
2022-12-14T23:00:54.201Z,-3.62
2022-12-14T23:06:02.233Z,-3.59
2022-12-14T23:11:24.975Z,-3.57
2022-12-14T23:16:49.965Z,-3.66
2022-12-14T23:22:13.476Z,-3.79
2022-12-14T23:27:36.945Z,-3.92
2022-12-14T23:33:00.166Z,-4.05
2022-12-14T23:38:25.495Z,-4.12
2022-12-14T23:43:48.684Z,-4.16
2022-12-14T23:49:15.905Z,-4.24
2022-12-14T23:54:37.259Z,-4.32
